sensor_id;sensor_type;location;lat;lon;timestamp;noise_LAeq;noise_LA_min;noise_LA_max;noise_LA01;noise_LA95
76339;Laerm;26644;50.248;19.032;2024-01-30T00:01:39;51.32;46.32;55.37;;
76339;Laerm;26644;50.248;19.032;2024-01-30T00:04:45;51.07;46.12;56.68;;
76339;Laerm;26644;50.248;19.032;2024-01-30T00:07:53;52.18;46.57;57.77;;
76339;Laerm;26644;50.248;19.032;2024-01-30T00:10:59;52.15;46.18;58.58;;
76339;Laerm;26644;50.248;19.032;2024-01-30T00:14:03;51.67;46.29;59.79;;
76339;Laerm;26644;50.248;19.032;2024-01-30T00:17:09;50.36;45.94;55.88;;
76339;Laerm;26644;50.248;19.032;2024-01-30T00:20:13;51.99;47.65;61.48;;
76339;Laerm;26644;50.248;19.032;2024-01-30T00:23:21;51.12;45.12;58.79;;
76339;Laerm;26644;50.248;19.032;2024-01-30T00:26:25;52.07;45.00;63.86;;
76339;Laerm;26644;50.248;19.032;2024-01-30T00:29:30;51.28;45.24;63.92;;
76339;Laerm;26644;50.248;19.032;2024-01-30T00:32:35;53.11;45.53;61.29;;
76339;Laerm;26644;50.248;19.032;2024-01-30T00:35:40;50.71;45.22;58.30;;
76339;Laerm;26644;50.248;19.032;2024-01-30T00:38:47;52.15;47.17;56.97;;
76339;Laerm;26644;50.248;19.032;2024-01-30T00:41:53;51.43;43.36;60.44;;
76339;Laerm;26644;50.248;19.032;2024-01-30T00:44:58;51.60;46.01;60.40;;
76339;Laerm;26644;50.248;19.032;2024-01-30T00:48:04;50.70;45.40;56.77;;
76339;Laerm;26644;50.248;19.032;2024-01-30T00:51:08;50.38;44.87;55.44;;
76339;Laerm;26644;50.248;19.032;2024-01-30T00:54:16;51.31;45.68;57.30;;
76339;Laerm;26644;50.248;19.032;2024-01-30T00:57:20;50.77;46.43;55.85;;
76339;Laerm;26644;50.248;19.032;2024-01-30T01:00:26;50.91;45.32;55.57;;
76339;Laerm;26644;50.248;19.032;2024-01-30T01:03:30;50.88;43.62;60.70;;
76339;Laerm;26644;50.248;19.032;2024-01-30T01:06:35;50.78;43.11;55.76;;
76339;Laerm;26644;50.248;19.032;2024-01-30T01:09:42;49.68;42.90;55.82;;
76339;Laerm;26644;50.248;19.032;2024-01-30T01:12:48;51.22;46.17;55.07;;
76339;Laerm;26644;50.248;19.032;2024-01-30T01:15:53;50.24;44.40;56.15;;
76339;Laerm;26644;50.248;19.032;2024-01-30T01:18:58;49.49;44.26;54.94;;
76339;Laerm;26644;50.248;19.032;2024-01-30T01:22:03;49.08;42.69;55.57;;
76339;Laerm;26644;50.248;19.032;2024-01-30T01:25:11;50.74;43.90;57.23;;
76339;Laerm;26644;50.248;19.032;2024-01-30T01:28:15;50.00;44.06;56.42;;
76339;Laerm;26644;50.248;19.032;2024-01-30T01:31:21;51.79;46.46;58.17;;
76339;Laerm;26644;50.248;19.032;2024-01-30T01:34:26;51.45;45.76;57.05;;
76339;Laerm;26644;50.248;19.032;2024-01-30T01:37:31;51.52;46.23;59.61;;
76339;Laerm;26644;50.248;19.032;2024-01-30T01:40:38;51.76;45.74;58.05;;
76339;Laerm;26644;50.248;19.032;2024-01-30T01:43:46;50.42;45.77;56.77;;
76339;Laerm;26644;50.248;19.032;2024-01-30T01:46:52;51.09;46.24;56.75;;
76339;Laerm;26644;50.248;19.032;2024-01-30T01:50:01;50.51;44.58;57.00;;
76339;Laerm;26644;50.248;19.032;2024-01-30T01:53:08;48.57;42.75;53.90;;
76339;Laerm;26644;50.248;19.032;2024-01-30T01:56:16;51.16;44.62;57.11;;
76339;Laerm;26644;50.248;19.032;2024-01-30T01:59:23;51.80;46.13;56.62;;
76339;Laerm;26644;50.248;19.032;2024-01-30T02:02:31;51.25;46.43;57.77;;
76339;Laerm;26644;50.248;19.032;2024-01-30T02:05:41;49.81;44.24;54.70;;
76339;Laerm;26644;50.248;19.032;2024-01-30T02:08:47;50.51;45.81;54.50;;
76339;Laerm;26644;50.248;19.032;2024-01-30T02:11:54;51.29;46.46;58.35;;
76339;Laerm;26644;50.248;19.032;2024-01-30T02:15:00;51.54;47.54;55.71;;
76339;Laerm;26644;50.248;19.032;2024-01-30T02:18:06;51.13;45.41;55.85;;
76339;Laerm;26644;50.248;19.032;2024-01-30T02:21:14;49.42;44.82;55.38;;
76339;Laerm;26644;50.248;19.032;2024-01-30T02:24:19;50.89;45.54;56.30;;
76339;Laerm;26644;50.248;19.032;2024-01-30T02:27:24;50.18;44.13;56.82;;
76339;Laerm;26644;50.248;19.032;2024-01-30T02:30:29;51.06;42.52;56.38;;
76339;Laerm;26644;50.248;19.032;2024-01-30T02:33:34;51.14;42.94;58.57;;
76339;Laerm;26644;50.248;19.032;2024-01-30T02:36:42;51.61;45.93;56.75;;
76339;Laerm;26644;50.248;19.032;2024-01-30T02:39:47;51.22;46.01;55.75;;
76339;Laerm;26644;50.248;19.032;2024-01-30T02:42:52;51.52;45.46;59.58;;
76339;Laerm;26644;50.248;19.032;2024-01-30T02:45:57;51.80;47.31;60.72;;
76339;Laerm;26644;50.248;19.032;2024-01-30T02:49:03;51.95;47.18;58.18;;
76339;Laerm;26644;50.248;19.032;2024-01-30T02:52:10;50.88;46.32;56.32;;
76339;Laerm;26644;50.248;19.032;2024-01-30T02:55:15;50.67;44.24;57.34;;
76339;Laerm;26644;50.248;19.032;2024-01-30T02:58:21;51.18;45.84;55.86;;
76339;Laerm;26644;50.248;19.032;2024-01-30T03:01:26;50.50;44.25;56.85;;
76339;Laerm;26644;50.248;19.032;2024-01-30T03:04:30;50.53;44.66;56.89;;
76339;Laerm;26644;50.248;19.032;2024-01-30T03:07:38;50.61;44.95;55.37;;
76339;Laerm;26644;50.248;19.032;2024-01-30T03:10:42;52.23;46.21;56.43;;
76339;Laerm;26644;50.248;19.032;2024-01-30T03:13:48;51.52;46.86;56.72;;
76339;Laerm;26644;50.248;19.032;2024-01-30T03:16:53;52.42;47.58;57.89;;
76339;Laerm;26644;50.248;19.032;2024-01-30T03:19:58;53.05;48.88;56.37;;
76339;Laerm;26644;50.248;19.032;2024-01-30T03:23:05;51.77;46.55;56.19;;
76339;Laerm;26644;50.248;19.032;2024-01-30T03:26:10;53.20;49.17;61.72;;
76339;Laerm;26644;50.248;19.032;2024-01-30T03:29:16;52.69;47.77;60.32;;
76339;Laerm;26644;50.248;19.032;2024-01-30T03:32:21;54.08;48.46;58.74;;
76339;Laerm;26644;50.248;19.032;2024-01-30T03:35:25;53.64;48.87;58.31;;
76339;Laerm;26644;50.248;19.032;2024-01-30T03:38:33;52.45;48.82;56.88;;
76339;Laerm;26644;50.248;19.032;2024-01-30T03:41:37;53.56;49.15;57.34;;
76339;Laerm;26644;50.248;19.032;2024-01-30T03:44:43;53.36;48.81;60.68;;
76339;Laerm;26644;50.248;19.032;2024-01-30T03:47:47;54.19;50.25;59.51;;
76339;Laerm;26644;50.248;19.032;2024-01-30T03:50:52;53.41;49.74;59.21;;
76339;Laerm;26644;50.248;19.032;2024-01-30T03:53:59;52.83;48.94;56.75;;
76339;Laerm;26644;50.248;19.032;2024-01-30T03:57:05;53.15;49.92;58.29;;
76339;Laerm;26644;50.248;19.032;2024-01-30T04:00:11;53.70;49.12;58.93;;
76339;Laerm;26644;50.248;19.032;2024-01-30T04:03:17;54.32;50.58;61.03;;
76339;Laerm;26644;50.248;19.032;2024-01-30T04:06:21;53.85;50.05;69.58;;
76339;Laerm;26644;50.248;19.032;2024-01-30T04:09:29;54.88;50.49;67.04;;
76339;Laerm;26644;50.248;19.032;2024-01-30T04:12:34;54.47;50.14;60.46;;
76339;Laerm;26644;50.248;19.032;2024-01-30T04:15:39;54.15;50.00;58.12;;
76339;Laerm;26644;50.248;19.032;2024-01-30T04:18:44;54.74;50.67;58.44;;
76339;Laerm;26644;50.248;19.032;2024-01-30T04:21:49;55.21;51.21;60.58;;
76339;Laerm;26644;50.248;19.032;2024-01-30T04:24:56;54.75;50.93;60.18;;
76339;Laerm;26644;50.248;19.032;2024-01-30T04:28:01;54.84;51.14;70.92;;
76339;Laerm;26644;50.248;19.032;2024-01-30T04:31:05;54.78;51.12;58.46;;
76339;Laerm;26644;50.248;19.032;2024-01-30T04:34:11;54.64;50.69;58.93;;
76339;Laerm;26644;50.248;19.032;2024-01-30T04:37:15;55.26;51.78;61.34;;
76339;Laerm;26644;50.248;19.032;2024-01-30T04:40:23;55.99;51.74;60.86;;
76339;Laerm;26644;50.248;19.032;2024-01-30T04:43:27;55.89;51.58;63.77;;
76339;Laerm;26644;50.248;19.032;2024-01-30T04:46:33;56.21;52.68;59.36;;
76339;Laerm;26644;50.248;19.032;2024-01-30T04:49:38;55.52;51.70;70.17;;
76339;Laerm;26644;50.248;19.032;2024-01-30T04:52:44;56.65;53.00;75.23;;
76339;Laerm;26644;50.248;19.032;2024-01-30T04:55:51;55.57;52.42;59.00;;
76339;Laerm;26644;50.248;19.032;2024-01-30T04:58:57;55.08;51.76;58.67;;
76339;Laerm;26644;50.248;19.032;2024-01-30T05:02:01;55.36;52.12;64.85;;
76339;Laerm;26644;50.248;19.032;2024-01-30T05:05:07;55.26;51.99;58.30;;
76339;Laerm;26644;50.248;19.032;2024-01-30T05:08:12;55.93;52.18;60.90;;
76339;Laerm;26644;50.248;19.032;2024-01-30T05:11:19;55.07;51.29;59.40;;
76339;Laerm;26644;50.248;19.032;2024-01-30T05:14:24;55.75;52.68;58.73;;
76339;Laerm;26644;50.248;19.032;2024-01-30T05:17:29;55.68;52.44;59.20;;
76339;Laerm;26644;50.248;19.032;2024-01-30T05:20:34;56.11;53.05;64.50;;
76339;Laerm;26644;50.248;19.032;2024-01-30T05:23:39;56.81;53.52;64.60;;
76339;Laerm;26644;50.248;19.032;2024-01-30T05:26:46;55.86;53.00;58.96;;
76339;Laerm;26644;50.248;19.032;2024-01-30T05:29:53;56.47;52.62;59.84;;
76339;Laerm;26644;50.248;19.032;2024-01-30T05:32:57;56.34;53.04;60.36;;
76339;Laerm;26644;50.248;19.032;2024-01-30T05:36:03;56.52;53.36;60.36;;
76339;Laerm;26644;50.248;19.032;2024-01-30T05:39:07;56.51;52.96;63.28;;
76339;Laerm;26644;50.248;19.032;2024-01-30T05:42:15;56.77;53.38;60.88;;
76339;Laerm;26644;50.248;19.032;2024-01-30T05:45:20;56.71;53.40;64.64;;
76339;Laerm;26644;50.248;19.032;2024-01-30T05:48:25;56.60;52.61;68.57;;
76339;Laerm;26644;50.248;19.032;2024-01-30T05:51:30;55.45;52.64;70.24;;
76339;Laerm;26644;50.248;19.032;2024-01-30T05:54:35;55.11;52.32;62.08;;
76339;Laerm;26644;50.248;19.032;2024-01-30T05:57:42;55.93;52.81;62.31;;
76339;Laerm;26644;50.248;19.032;2024-01-30T06:00:47;57.06;53.36;78.19;;
76339;Laerm;26644;50.248;19.032;2024-01-30T06:03:52;57.21;53.04;71.46;;
76339;Laerm;26644;50.248;19.032;2024-01-30T06:06:57;57.51;52.72;75.97;;
76339;Laerm;26644;50.248;19.032;2024-01-30T06:10:05;58.12;53.56;75.66;;
76339;Laerm;26644;50.248;19.032;2024-01-30T06:13:13;58.38;54.04;74.01;;
76339;Laerm;26644;50.248;19.032;2024-01-30T06:16:18;58.76;54.02;80.12;;
76339;Laerm;26644;50.248;19.032;2024-01-30T06:19:24;58.49;53.44;72.76;;
76339;Laerm;26644;50.248;19.032;2024-01-30T06:22:29;57.56;54.04;74.12;;
76339;Laerm;26644;50.248;19.032;2024-01-30T06:25:34;57.30;54.33;68.76;;
76339;Laerm;26644;50.248;19.032;2024-01-30T06:28:41;56.54;52.97;69.92;;
76339;Laerm;26644;50.248;19.032;2024-01-30T06:31:46;57.03;53.11;72.43;;
76339;Laerm;26644;50.248;19.032;2024-01-30T06:34:51;60.58;54.39;79.43;;
76339;Laerm;26644;50.248;19.032;2024-01-30T06:37:56;57.96;54.28;65.62;;
76339;Laerm;26644;50.248;19.032;2024-01-30T06:41:00;59.16;54.33;74.07;;
76339;Laerm;26644;50.248;19.032;2024-01-30T06:44:08;58.91;54.89;70.49;;
76339;Laerm;26644;50.248;19.032;2024-01-30T06:47:13;60.10;53.95;76.93;;
76339;Laerm;26644;50.248;19.032;2024-01-30T06:50:18;57.85;54.16;65.62;;
76339;Laerm;26644;50.248;19.032;2024-01-30T06:53:23;58.54;55.11;67.11;;
76339;Laerm;26644;50.248;19.032;2024-01-30T06:56:29;58.31;54.50;79.05;;
76339;Laerm;26644;50.248;19.032;2024-01-30T06:59:36;58.43;54.41;75.92;;
76339;Laerm;26644;50.248;19.032;2024-01-30T07:02:45;58.07;55.01;70.09;;
76339;Laerm;26644;50.248;19.032;2024-01-30T07:05:50;57.63;54.17;75.61;;
76339;Laerm;26644;50.248;19.032;2024-01-30T07:08:55;58.44;55.09;68.04;;
76339;Laerm;26644;50.248;19.032;2024-01-30T07:12:00;58.31;54.96;67.41;;
76339;Laerm;26644;50.248;19.032;2024-01-30T07:15:09;57.41;54.34;65.41;;
76339;Laerm;26644;50.248;19.032;2024-01-30T07:18:16;57.27;54.23;66.88;;
76339;Laerm;26644;50.248;19.032;2024-01-30T07:21:21;57.61;53.76;70.28;;
76339;Laerm;26644;50.248;19.032;2024-01-30T07:24:29;57.35;53.12;69.30;;
76339;Laerm;26644;50.248;19.032;2024-01-30T07:27:34;58.14;54.06;79.21;;
76339;Laerm;26644;50.248;19.032;2024-01-30T07:30:41;57.63;53.46;68.02;;
76339;Laerm;26644;50.248;19.032;2024-01-30T07:33:47;58.12;54.15;70.89;;
76339;Laerm;26644;50.248;19.032;2024-01-30T07:36:51;57.28;53.87;70.17;;
76339;Laerm;26644;50.248;19.032;2024-01-30T07:39:57;57.36;54.13;70.55;;
76339;Laerm;26644;50.248;19.032;2024-01-30T07:43:01;57.22;53.25;70.01;;
76339;Laerm;26644;50.248;19.032;2024-01-30T07:46:09;59.11;53.77;68.01;;
76339;Laerm;26644;50.248;19.032;2024-01-30T07:49:14;57.21;53.23;70.11;;
76339;Laerm;26644;50.248;19.032;2024-01-30T07:52:19;58.22;53.08;66.44;;
76339;Laerm;26644;50.248;19.032;2024-01-30T07:55:24;57.55;53.62;70.34;;
76339;Laerm;26644;50.248;19.032;2024-01-30T07:58:30;57.94;53.45;74.02;;
76339;Laerm;26644;50.248;19.032;2024-01-30T08:01:37;57.27;53.36;73.48;;
76339;Laerm;26644;50.248;19.032;2024-01-30T08:04:42;57.84;52.41;74.64;;
76339;Laerm;26644;50.248;19.032;2024-01-30T08:07:50;62.65;56.22;77.17;;
76339;Laerm;26644;50.248;19.032;2024-01-30T08:10:55;61.15;53.79;75.55;;
76339;Laerm;26644;50.248;19.032;2024-01-30T08:14:00;59.61;54.86;84.22;;
76339;Laerm;26644;50.248;19.032;2024-01-30T08:17:07;58.42;54.21;69.14;;
76339;Laerm;26644;50.248;19.032;2024-01-30T08:20:12;58.28;53.28;73.85;;
76339;Laerm;26644;50.248;19.032;2024-01-30T08:23:16;57.67;53.21;79.39;;
76339;Laerm;26644;50.248;19.032;2024-01-30T08:26:21;57.22;53.19;82.41;;
76339;Laerm;26644;50.248;19.032;2024-01-30T08:29:26;57.59;52.90;68.36;;
76339;Laerm;26644;50.248;19.032;2024-01-30T08:32:33;56.77;52.78;70.96;;
76339;Laerm;26644;50.248;19.032;2024-01-30T08:35:38;59.55;53.09;75.84;;
76339;Laerm;26644;50.248;19.032;2024-01-30T08:38:42;58.71;52.84;71.93;;
76339;Laerm;26644;50.248;19.032;2024-01-30T08:41:47;58.51;53.48;73.32;;
76339;Laerm;26644;50.248;19.032;2024-01-30T08:44:52;57.15;53.19;71.70;;
76339;Laerm;26644;50.248;19.032;2024-01-30T08:48:00;57.56;53.63;72.52;;
76339;Laerm;26644;50.248;19.032;2024-01-30T08:51:05;58.25;54.49;65.93;;
76339;Laerm;26644;50.248;19.032;2024-01-30T08:54:10;58.31;54.80;68.19;;
76339;Laerm;26644;50.248;19.032;2024-01-30T08:57:15;58.39;53.68;72.87;;
76339;Laerm;26644;50.248;19.032;2024-01-30T09:00:20;57.87;53.47;72.22;;
76339;Laerm;26644;50.248;19.032;2024-01-30T09:03:27;57.25;52.66;70.45;;
76339;Laerm;26644;50.248;19.032;2024-01-30T09:06:32;58.69;53.38;76.69;;
76339;Laerm;26644;50.248;19.032;2024-01-30T09:09:38;57.92;53.59;72.78;;
76339;Laerm;26644;50.248;19.032;2024-01-30T09:12:44;57.65;53.75;73.78;;
76339;Laerm;26644;50.248;19.032;2024-01-30T09:15:48;58.71;53.29;73.86;;
76339;Laerm;26644;50.248;19.032;2024-01-30T09:18:55;56.76;51.98;73.94;;
76339;Laerm;26644;50.248;19.032;2024-01-30T09:22:00;56.47;51.28;63.47;;
76339;Laerm;26644;50.248;19.032;2024-01-30T09:25:05;56.92;52.03;72.66;;
76339;Laerm;26644;50.248;19.032;2024-01-30T09:28:10;56.48;52.59;67.19;;
76339;Laerm;26644;50.248;19.032;2024-01-30T09:31:15;67.71;52.94;74.03;;
76339;Laerm;26644;50.248;19.032;2024-01-30T09:34:21;55.48;51.62;68.41;;
76339;Laerm;26644;50.248;19.032;2024-01-30T09:37:26;57.63;51.87;66.52;;
76339;Laerm;26644;50.248;19.032;2024-01-30T09:40:31;56.14;51.93;70.02;;
76339;Laerm;26644;50.248;19.032;2024-01-30T09:43:38;56.58;52.51;74.60;;
76339;Laerm;26644;50.248;19.032;2024-01-30T09:46:45;58.29;52.56;72.74;;
76339;Laerm;26644;50.248;19.032;2024-01-30T09:49:57;56.93;52.60;75.63;;
76339;Laerm;26644;50.248;19.032;2024-01-30T09:53:05;56.03;51.93;63.32;;
76339;Laerm;26644;50.248;19.032;2024-01-30T09:56:12;56.39;52.14;68.03;;
76339;Laerm;26644;50.248;19.032;2024-01-30T09:59:17;56.16;52.31;67.76;;
76339;Laerm;26644;50.248;19.032;2024-01-30T10:02:23;56.64;52.38;67.03;;
76339;Laerm;26644;50.248;19.032;2024-01-30T10:05:32;57.13;51.46;72.89;;
76339;Laerm;26644;50.248;19.032;2024-01-30T10:08:39;56.82;52.78;73.85;;
76339;Laerm;26644;50.248;19.032;2024-01-30T10:11:43;56.89;51.21;70.06;;
76339;Laerm;26644;50.248;19.032;2024-01-30T10:14:48;54.91;51.01;64.63;;
76339;Laerm;26644;50.248;19.032;2024-01-30T10:17:52;55.16;51.39;60.45;;
76339;Laerm;26644;50.248;19.032;2024-01-30T10:21:00;55.62;51.04;61.80;;
76339;Laerm;26644;50.248;19.032;2024-01-30T10:24:05;60.44;51.32;92.06;;
76339;Laerm;26644;50.248;19.032;2024-01-30T10:27:10;62.23;51.15;90.73;;
76339;Laerm;26644;50.248;19.032;2024-01-30T10:30:15;56.27;51.51;71.41;;
76339;Laerm;26644;50.248;19.032;2024-01-30T10:33:20;63.80;51.95;94.10;;
76339;Laerm;26644;50.248;19.032;2024-01-30T10:36:29;56.88;52.22;76.16;;
76339;Laerm;26644;50.248;19.032;2024-01-30T10:39:39;59.03;52.71;85.07;;
76339;Laerm;26644;50.248;19.032;2024-01-30T10:42:44;57.88;52.24;82.25;;
76339;Laerm;26644;50.248;19.032;2024-01-30T10:45:56;56.40;51.01;72.97;;
76339;Laerm;26644;50.248;19.032;2024-01-30T10:49:02;56.85;52.67;73.45;;
76339;Laerm;26644;50.248;19.032;2024-01-30T10:52:14;57.39;53.04;77.38;;
76339;Laerm;26644;50.248;19.032;2024-01-30T10:55:21;58.42;53.04;81.23;;
76339;Laerm;26644;50.248;19.032;2024-01-30T10:58:27;56.64;52.29;75.64;;
76339;Laerm;26644;50.248;19.032;2024-01-30T11:01:31;58.44;51.11;90.79;;
76339;Laerm;26644;50.248;19.032;2024-01-30T11:04:37;56.08;51.96;71.14;;
76339;Laerm;26644;50.248;19.032;2024-01-30T11:07:43;55.63;52.08;60.92;;
76339;Laerm;26644;50.248;19.032;2024-01-30T11:10:49;56.24;52.63;64.70;;
76339;Laerm;26644;50.248;19.032;2024-01-30T11:13:53;58.04;52.41;79.53;;
76339;Laerm;26644;50.248;19.032;2024-01-30T11:16:59;56.70;52.01;68.10;;
76339;Laerm;26644;50.248;19.032;2024-01-30T11:20:09;57.12;51.17;71.40;;
76339;Laerm;26644;50.248;19.032;2024-01-30T11:23:16;55.99;52.56;68.65;;
76339;Laerm;26644;50.248;19.032;2024-01-30T11:26:27;56.02;52.57;68.84;;
76339;Laerm;26644;50.248;19.032;2024-01-30T11:29:35;57.18;52.47;69.89;;
76339;Laerm;26644;50.248;19.032;2024-01-30T11:32:40;56.60;51.70;76.06;;
76339;Laerm;26644;50.248;19.032;2024-01-30T11:35:45;55.67;51.77;69.78;;
76339;Laerm;26644;50.248;19.032;2024-01-30T11:38:52;56.82;52.59;70.79;;
76339;Laerm;26644;50.248;19.032;2024-01-30T11:41:58;57.07;52.83;70.13;;
76339;Laerm;26644;50.248;19.032;2024-01-30T11:45:05;57.29;52.16;68.14;;
76339;Laerm;26644;50.248;19.032;2024-01-30T11:48:12;57.63;53.37;79.61;;
76339;Laerm;26644;50.248;19.032;2024-01-30T11:51:16;56.89;52.69;64.48;;
76339;Laerm;26644;50.248;19.032;2024-01-30T11:54:25;62.45;53.03;97.47;;
76339;Laerm;26644;50.248;19.032;2024-01-30T11:57:29;56.34;52.29;75.84;;
76339;Laerm;26644;50.248;19.032;2024-01-30T12:00:34;62.83;52.49;92.09;;
76339;Laerm;26644;50.248;19.032;2024-01-30T12:03:38;58.07;53.92;69.54;;
76339;Laerm;26644;50.248;19.032;2024-01-30T12:06:43;58.25;52.98;81.08;;
76339;Laerm;26644;50.248;19.032;2024-01-30T12:09:55;59.14;53.42;86.12;;
76339;Laerm;26644;50.248;19.032;2024-01-30T12:13:02;59.62;54.43;71.37;;
76339;Laerm;26644;50.248;19.032;2024-01-30T12:16:07;57.78;54.14;67.89;;
76339;Laerm;26644;50.248;19.032;2024-01-30T12:19:21;57.58;53.33;67.63;;
76339;Laerm;26644;50.248;19.032;2024-01-30T12:22:26;57.68;53.59;68.77;;
76339;Laerm;26644;50.248;19.032;2024-01-30T12:25:33;57.04;51.94;62.02;;
76339;Laerm;26644;50.248;19.032;2024-01-30T12:28:48;56.53;52.81;67.37;;
76339;Laerm;26644;50.248;19.032;2024-01-30T12:31:53;56.76;52.76;61.46;;
76339;Laerm;26644;50.248;19.032;2024-01-30T12:34:59;56.86;52.40;69.27;;
76339;Laerm;26644;50.248;19.032;2024-01-30T12:38:04;56.39;52.59;67.48;;
76339;Laerm;26644;50.248;19.032;2024-01-30T12:41:11;56.58;52.58;71.76;;
76339;Laerm;26644;50.248;19.032;2024-01-30T12:44:16;56.65;51.62;68.08;;
76339;Laerm;26644;50.248;19.032;2024-01-30T12:47:21;57.28;54.26;64.98;;
76339;Laerm;26644;50.248;19.032;2024-01-30T12:50:26;57.67;52.84;64.29;;
76339;Laerm;26644;50.248;19.032;2024-01-30T12:53:30;57.79;52.71;71.00;;
76339;Laerm;26644;50.248;19.032;2024-01-30T12:56:38;58.46;53.43;74.31;;
76339;Laerm;26644;50.248;19.032;2024-01-30T12:59:43;58.47;53.33;75.63;;
76339;Laerm;26644;50.248;19.032;2024-01-30T13:02:48;58.11;53.10;76.84;;
76339;Laerm;26644;50.248;19.032;2024-01-30T13:05:53;56.99;52.88;74.36;;
76339;Laerm;26644;50.248;19.032;2024-01-30T13:08:58;57.99;53.69;76.68;;
76339;Laerm;26644;50.248;19.032;2024-01-30T13:12:05;56.53;52.46;71.39;;
76339;Laerm;26644;50.248;19.032;2024-01-30T13:15:10;57.92;52.62;76.33;;
76339;Laerm;26644;50.248;19.032;2024-01-30T13:18:15;56.90;53.07;70.20;;
76339;Laerm;26644;50.248;19.032;2024-01-30T13:21:20;57.05;53.12;70.62;;
76339;Laerm;26644;50.248;19.032;2024-01-30T13:24:24;56.81;53.13;65.28;;
76339;Laerm;26644;50.248;19.032;2024-01-30T13:27:31;57.15;53.70;63.98;;
76339;Laerm;26644;50.248;19.032;2024-01-30T13:30:36;57.25;53.48;69.42;;
76339;Laerm;26644;50.248;19.032;2024-01-30T13:33:41;56.22;52.98;71.63;;
76339;Laerm;26644;50.248;19.032;2024-01-30T13:36:46;56.77;52.05;70.02;;
76339;Laerm;26644;50.248;19.032;2024-01-30T13:39:51;56.12;52.62;64.34;;
76339;Laerm;26644;50.248;19.032;2024-01-30T13:42:58;56.70;52.65;62.75;;
76339;Laerm;26644;50.248;19.032;2024-01-30T13:46:03;56.30;53.30;68.91;;
76339;Laerm;26644;50.248;19.032;2024-01-30T13:49:08;56.26;51.95;70.42;;
76339;Laerm;26644;50.248;19.032;2024-01-30T13:52:13;57.97;53.21;70.11;;
76339;Laerm;26644;50.248;19.032;2024-01-30T13:55:17;56.62;52.87;69.53;;
76339;Laerm;26644;50.248;19.032;2024-01-30T13:58:25;56.98;53.10;66.95;;
76339;Laerm;26644;50.248;19.032;2024-01-30T14:01:29;57.95;53.36;74.14;;
76339;Laerm;26644;50.248;19.032;2024-01-30T14:04:34;60.59;52.31;82.45;;
76339;Laerm;26644;50.248;19.032;2024-01-30T14:07:39;56.97;53.27;74.10;;
76339;Laerm;26644;50.248;19.032;2024-01-30T14:10:44;57.27;52.90;69.40;;
76339;Laerm;26644;50.248;19.032;2024-01-30T14:13:51;56.51;53.00;62.61;;
76339;Laerm;26644;50.248;19.032;2024-01-30T14:16:56;57.15;53.25;70.91;;
76339;Laerm;26644;50.248;19.032;2024-01-30T14:20:00;56.45;52.95;65.37;;
76339;Laerm;26644;50.248;19.032;2024-01-30T14:23:06;56.51;53.16;62.94;;
76339;Laerm;26644;50.248;19.032;2024-01-30T14:26:11;56.32;52.14;67.10;;
76339;Laerm;26644;50.248;19.032;2024-01-30T14:29:18;57.19;53.07;67.30;;
76339;Laerm;26644;50.248;19.032;2024-01-30T14:32:23;57.26;53.00;65.27;;
76339;Laerm;26644;50.248;19.032;2024-01-30T14:35:28;56.60;52.60;65.01;;
76339;Laerm;26644;50.248;19.032;2024-01-30T14:38:32;57.37;53.67;71.42;;
76339;Laerm;26644;50.248;19.032;2024-01-30T14:41:37;58.52;54.33;77.45;;
76339;Laerm;26644;50.248;19.032;2024-01-30T14:44:44;57.25;53.73;66.02;;
76339;Laerm;26644;50.248;19.032;2024-01-30T14:47:49;56.43;53.19;67.18;;
76339;Laerm;26644;50.248;19.032;2024-01-30T14:50:54;57.39;54.45;62.30;;
76339;Laerm;26644;50.248;19.032;2024-01-30T14:53:59;57.66;53.66;69.78;;
76339;Laerm;26644;50.248;19.032;2024-01-30T14:57:04;56.77;53.16;64.85;;
76339;Laerm;26644;50.248;19.032;2024-01-30T15:00:15;56.49;53.17;61.64;;
76339;Laerm;26644;50.248;19.032;2024-01-30T15:03:21;58.33;53.56;77.47;;
76339;Laerm;26644;50.248;19.032;2024-01-30T15:06:26;58.44;52.90;73.81;;
76339;Laerm;26644;50.248;19.032;2024-01-30T15:09:31;58.04;53.04;77.02;;
76339;Laerm;26644;50.248;19.032;2024-01-30T15:12:36;58.12;53.94;77.69;;
76339;Laerm;26644;50.248;19.032;2024-01-30T15:15:43;57.30;53.19;72.03;;
76339;Laerm;26644;50.248;19.032;2024-01-30T15:18:48;57.22;52.84;69.73;;
76339;Laerm;26644;50.248;19.032;2024-01-30T15:21:52;58.47;53.58;75.21;;
76339;Laerm;26644;50.248;19.032;2024-01-30T15:24:57;57.24;53.34;71.79;;
76339;Laerm;26644;50.248;19.032;2024-01-30T15:28:01;58.31;52.51;79.86;;
76339;Laerm;26644;50.248;19.032;2024-01-30T15:31:08;56.54;53.13;62.50;;
76339;Laerm;26644;50.248;19.032;2024-01-30T15:34:13;56.32;52.81;65.70;;
76339;Laerm;26644;50.248;19.032;2024-01-30T15:37:18;56.30;52.12;64.60;;
76339;Laerm;26644;50.248;19.032;2024-01-30T15:40:22;56.49;52.81;65.26;;
76339;Laerm;26644;50.248;19.032;2024-01-30T15:43:27;56.69;52.82;65.65;;
76339;Laerm;26644;50.248;19.032;2024-01-30T15:46:36;56.11;51.70;61.04;;
76339;Laerm;26644;50.248;19.032;2024-01-30T15:49:41;55.85;52.08;61.18;;
76339;Laerm;26644;50.248;19.032;2024-01-30T15:52:45;56.25;53.37;59.66;;
76339;Laerm;26644;50.248;19.032;2024-01-30T15:55:50;57.58;51.82;74.35;;
76339;Laerm;26644;50.248;19.032;2024-01-30T15:58:54;56.06;51.96;62.40;;
76339;Laerm;26644;50.248;19.032;2024-01-30T16:02:02;55.52;51.73;60.71;;
76339;Laerm;26644;50.248;19.032;2024-01-30T16:05:07;56.01;52.79;61.10;;
76339;Laerm;26644;50.248;19.032;2024-01-30T16:08:13;55.83;52.13;61.20;;
76339;Laerm;26644;50.248;19.032;2024-01-30T16:11:17;56.25;53.23;61.08;;
76339;Laerm;26644;50.248;19.032;2024-01-30T16:14:22;55.83;52.21;60.37;;
76339;Laerm;26644;50.248;19.032;2024-01-30T16:17:29;55.05;51.57;60.37;;
76339;Laerm;26644;50.248;19.032;2024-01-30T16:20:35;56.40;51.68;76.55;;
76339;Laerm;26644;50.248;19.032;2024-01-30T16:23:39;55.83;52.17;67.83;;
76339;Laerm;26644;50.248;19.032;2024-01-30T16:26:44;55.48;51.41;62.19;;
76339;Laerm;26644;50.248;19.032;2024-01-30T16:29:48;55.67;51.47;64.59;;
76339;Laerm;26644;50.248;19.032;2024-01-30T16:32:55;54.82;51.80;59.24;;
76339;Laerm;26644;50.248;19.032;2024-01-30T16:36:00;54.88;51.38;63.29;;
76339;Laerm;26644;50.248;19.032;2024-01-30T16:39:05;56.11;52.25;70.18;;
76339;Laerm;26644;50.248;19.032;2024-01-30T16:42:09;54.88;51.53;59.40;;
76339;Laerm;26644;50.248;19.032;2024-01-30T16:45:15;55.90;52.33;61.74;;
76339;Laerm;26644;50.248;19.032;2024-01-30T16:48:21;56.28;52.43;62.60;;
76339;Laerm;26644;50.248;19.032;2024-01-30T16:51:26;55.84;51.78;66.29;;
76339;Laerm;26644;50.248;19.032;2024-01-30T16:54:30;55.58;52.04;66.47;;
76339;Laerm;26644;50.248;19.032;2024-01-30T16:57:35;56.01;52.14;59.58;;
76339;Laerm;26644;50.248;19.032;2024-01-30T17:00:39;56.05;52.84;59.81;;
76339;Laerm;26644;50.248;19.032;2024-01-30T17:03:47;55.95;52.44;60.28;;